Hauptseite
METAR-TAF:

METAR-TAF

Flughäfen :

Pruniers

Romorantin, Frankreich

Breite: 47-19N, Länge: 001-41E, Höhe: 85 m

Beobachtung

Neuester Wetterbericht von vor 48 Minuten, um 03:30 UTC
Windstille
Temperatur 3°C
Luftfeuchtigkeit 93%
Luftdruck 1008 hPa
Sichtweite: 2200 m
feuchter Dunst

METAR: LFYR 070330Z AUTO 00000KT 2200 BR NSC 03/02 Q1008

Zeit: 06:18 (04:18 UTC)


TAF: fehlend

Wetterbeobachtungen und Prognosen von mehr als 4000 Flughäfen (METAR und TAF Bericht).

Die verfügbaren Stationen werden durch gelbe und rote Markierungen auf der Karte dargestellt.

Führen Sie die Maus auf sie, um den Namen der Station zu sehen.

Darauf klicken, um die Beobachtung von Wetterbeobachtungen und Prognosen zu sehen.

Um die Karte zu ändern : klicken Sie auf den grünen Tasten mit einem schwarzen Kreuz Zum Vergrößern, auf den grünen Button mit einem Gedankenstrich zu verkleinern, oder auf die grünen Pfeile für benachbarte Karten.


METAR-TAF: